createdAt,value
2017-09-22T00:01:08.171Z,90.70
2017-09-22T00:03:36.481Z,90.50
2017-09-22T00:06:04.007Z,90.50
2017-09-22T00:08:32.335Z,90.40
2017-09-22T00:10:59.889Z,90.40
2017-09-22T00:13:27.458Z,90.40
2017-09-22T00:15:54.971Z,90.40
2017-09-22T00:18:22.569Z,90.50
2017-09-22T00:20:50.131Z,90.70
2017-09-22T00:23:17.659Z,90.80
2017-09-22T00:25:45.198Z,90.90
2017-09-22T00:28:13.506Z,90.90
2017-09-22T00:30:41.826Z,90.70
2017-09-22T00:33:09.342Z,90.70
2017-09-22T00:35:36.853Z,90.60
2017-09-22T00:38:04.370Z,90.50
2017-09-22T00:40:31.914Z,90.60
2017-09-22T00:42:59.418Z,90.70
2017-09-22T00:45:26.939Z,90.80
2017-09-22T00:47:54.454Z,91.20
2017-09-22T00:50:21.993Z,91.30
2017-09-22T00:52:49.529Z,91.10
2017-09-22T00:55:17.125Z,91.00
2017-09-22T00:57:44.640Z,91.20
2017-09-22T01:00:12.207Z,91.00
2017-09-22T01:02:39.741Z,90.90
2017-09-22T01:05:08.154Z,90.90
2017-09-22T01:07:35.688Z,90.90
2017-09-22T01:10:03.272Z,91.20
2017-09-22T01:12:30.800Z,91.20
2017-09-22T01:14:59.120Z,91.40
2017-09-22T01:17:26.672Z,91.40
2017-09-22T01:19:54.210Z,91.30
2017-09-22T01:22:21.757Z,91.00
2017-09-22T01:24:50.029Z,91.30
2017-09-22T01:27:18.303Z,91.10
2017-09-22T01:29:46.622Z,91.20
2017-09-22T01:32:14.134Z,91.20
2017-09-22T01:34:41.645Z,91.20
2017-09-22T01:37:09.185Z,91.20
2017-09-22T01:39:36.714Z,91.30
2017-09-22T01:42:04.984Z,91.10
2017-09-22T01:44:32.510Z,91.10
2017-09-22T01:47:00.054Z,91.00
2017-09-22T01:49:27.561Z,91.00
2017-09-22T01:51:55.109Z,91.20
2017-09-22T01:54:22.654Z,91.30
2017-09-22T01:56:50.200Z,91.20
2017-09-22T01:59:17.726Z,91.30
2017-09-22T02:01:46.062Z,91.50
2017-09-22T02:04:13.655Z,91.40
2017-09-22T02:06:41.947Z,91.50
2017-09-22T02:09:09.470Z,91.50
2017-09-22T02:11:37.014Z,91.30
2017-09-22T02:14:04.653Z,91.10
2017-09-22T02:16:32.205Z,91.20
2017-09-22T02:18:59.709Z,91.00
2017-09-22T02:21:27.241Z,91.20
2017-09-22T02:23:54.768Z,91.40
2017-09-22T02:26:22.289Z,91.80
2017-09-22T02:28:49.796Z,92.10
2017-09-22T02:31:17.362Z,91.80
2017-09-22T02:33:44.905Z,91.80
2017-09-22T02:36:12.439Z,91.80
2017-09-22T02:38:40.710Z,92.00
2017-09-22T02:41:09.040Z,92.00
2017-09-22T02:43:36.586Z,92.00
2017-09-22T02:46:04.118Z,91.80
2017-09-22T02:48:32.395Z,92.10
2017-09-22T02:51:00.687Z,91.90
2017-09-22T02:53:28.968Z,92.20
2017-09-22T02:55:56.497Z,92.20
2017-09-22T02:58:24.015Z,92.00
2017-09-22T03:00:51.617Z,91.80
2017-09-22T03:03:19.138Z,91.70
2017-09-22T03:05:46.673Z,91.80
2017-09-22T03:08:14.167Z,91.70
2017-09-22T03:10:41.749Z,91.60
2017-09-22T03:13:09.279Z,91.90
2017-09-22T03:15:36.858Z,91.80
2017-09-22T03:18:04.397Z,91.70
2017-09-22T03:20:31.930Z,91.50
2017-09-22T03:22:59.437Z,91.40
2017-09-22T03:25:26.993Z,91.40
2017-09-22T03:27:54.573Z,91.50
2017-09-22T03:30:22.115Z,91.70
2017-09-22T03:32:49.686Z,91.60
2017-09-22T03:35:17.195Z,91.70
2017-09-22T03:37:44.738Z,91.70
2017-09-22T03:40:13.040Z,92.10
2017-09-22T03:42:40.574Z,92.00
2017-09-22T03:45:08.850Z,92.00
2017-09-22T03:47:37.164Z,91.90
2017-09-22T03:50:04.678Z,91.90
2017-09-22T03:52:32.979Z,92.30
2017-09-22T03:55:00.510Z,91.90
2017-09-22T03:57:28.806Z,91.80
2017-09-22T03:59:56.346Z,91.70
2017-09-22T04:02:23.935Z,91.90
2017-09-22T04:04:51.457Z,92.40
2017-09-22T04:07:18.986Z,92.10
2017-09-22T04:09:47.266Z,92.00
2017-09-22T04:12:14.796Z,92.00
2017-09-22T04:14:42.385Z,91.80
2017-09-22T04:17:09.913Z,91.90
2017-09-22T04:19:37.442Z,92.00
2017-09-22T04:22:05.790Z,92.10
2017-09-22T04:24:33.319Z,92.00
2017-09-22T04:27:00.853Z,92.20
2017-09-22T04:29:28.370Z,92.30
2017-09-22T04:31:55.939Z,92.30
2017-09-22T04:34:23.445Z,92.10
2017-09-22T04:36:50.990Z,92.20
2017-09-22T04:39:19.282Z,91.90
2017-09-22T04:41:46.827Z,91.90
2017-09-22T04:44:15.111Z,91.90
2017-09-22T04:46:42.671Z,91.90
2017-09-22T04:49:10.226Z,91.90
2017-09-22T04:51:38.543Z,91.80
2017-09-22T04:54:06.098Z,91.80
2017-09-22T04:56:33.709Z,91.80
2017-09-22T04:59:02.013Z,91.90
2017-09-22T05:01:29.530Z,91.90
2017-09-22T05:03:57.046Z,91.90
2017-09-22T05:06:29.621Z,92.10
2017-09-22T05:08:57.137Z,92.40
2017-09-22T05:11:24.693Z,92.30
2017-09-22T05:13:52.971Z,92.00
2017-09-22T05:16:21.333Z,91.90
2017-09-22T05:18:48.862Z,91.90
2017-09-22T05:21:16.374Z,91.80
2017-09-22T05:23:44.710Z,91.90
2017-09-22T05:26:12.249Z,91.90
2017-09-22T05:28:41.361Z,92.30
2017-09-22T05:31:08.877Z,92.30
2017-09-22T05:33:36.471Z,92.00
2017-09-22T05:36:04.053Z,92.70
2017-09-22T05:38:31.596Z,92.60
2017-09-22T05:40:59.130Z,92.40
2017-09-22T05:43:27.440Z,92.70
2017-09-22T05:45:54.989Z,92.70
2017-09-22T05:48:22.530Z,92.50
2017-09-22T05:50:50.814Z,92.20
2017-09-22T05:53:19.131Z,92.10
2017-09-22T05:55:46.640Z,92.10
2017-09-22T05:58:14.155Z,92.00
2017-09-22T06:00:41.665Z,91.90
2017-09-22T06:03:09.233Z,92.10
2017-09-22T06:05:36.761Z,92.10
2017-09-22T06:08:05.060Z,91.90
2017-09-22T06:10:32.594Z,91.90
2017-09-22T06:13:00.907Z,91.70
2017-09-22T06:15:28.440Z,91.70
2017-09-22T06:17:56.751Z,91.40
2017-09-22T06:20:24.249Z,91.40
2017-09-22T06:22:51.774Z,91.30
2017-09-22T06:25:19.288Z,91.30
2017-09-22T06:27:47.581Z,91.30
2017-09-22T06:30:15.110Z,91.20
2017-09-22T06:32:42.652Z,91.10
2017-09-22T06:35:10.186Z,90.80
2017-09-22T06:37:37.746Z,90.50
2017-09-22T06:40:05.254Z,90.50
2017-09-22T06:42:32.813Z,90.60
2017-09-22T06:45:00.338Z,90.40
2017-09-22T06:47:27.866Z,90.20
2017-09-22T06:49:55.363Z,90.20
2017-09-22T06:52:22.893Z,90.40
2017-09-22T06:54:50.443Z,90.50
2017-09-22T06:57:17.952Z,90.50
2017-09-22T06:59:45.475Z,90.30
2017-09-22T07:02:13.003Z,90.40
2017-09-22T07:04:41.330Z,90.50
2017-09-22T07:07:08.868Z,90.50
2017-09-22T07:09:36.456Z,90.40
2017-09-22T07:12:03.958Z,90.70
2017-09-22T07:14:32.271Z,90.20
2017-09-22T07:16:59.806Z,90.20
2017-09-22T07:19:28.093Z,88.20
2017-09-22T07:21:55.598Z,88.20
2017-09-22T07:24:23.169Z,86.90
2017-09-22T07:26:50.704Z,86.80
2017-09-22T07:29:18.273Z,86.60
2017-09-22T07:31:46.561Z,86.00
2017-09-22T07:34:14.120Z,85.80
2017-09-22T07:36:41.658Z,85.40
2017-09-22T07:39:09.242Z,85.00
2017-09-22T07:41:36.811Z,84.50
2017-09-22T07:44:04.401Z,84.00
2017-09-22T07:46:31.901Z,83.90
2017-09-22T07:48:59.444Z,82.80
2017-09-22T07:51:26.973Z,82.20
2017-09-22T07:53:55.322Z,81.20
2017-09-22T07:56:22.886Z,81.20
2017-09-22T07:58:51.262Z,80.40
2017-09-22T08:01:18.789Z,80.30
2017-09-22T08:03:46.330Z,80.90
2017-09-22T08:06:13.850Z,79.70
2017-09-22T08:08:42.196Z,78.90
2017-09-22T08:11:09.777Z,78.90
2017-09-22T08:13:37.325Z,78.20
2017-09-22T08:16:04.880Z,77.90
2017-09-22T08:18:32.416Z,77.50
2017-09-22T08:20:59.920Z,76.80
2017-09-22T08:23:27.502Z,77.10
2017-09-22T08:25:55.819Z,77.80
2017-09-22T08:28:23.346Z,77.80
2017-09-22T08:30:51.625Z,72.60
2017-09-22T08:33:19.981Z,73.00
2017-09-22T08:35:47.515Z,72.90
2017-09-22T08:38:15.027Z,73.30
2017-09-22T08:40:43.410Z,70.40
2017-09-22T08:43:11.718Z,68.40
2017-09-22T08:45:40.779Z,66.10
2017-09-22T08:48:09.122Z,65.20
2017-09-22T08:50:36.655Z,65.20
2017-09-22T08:53:04.219Z,63.90
2017-09-22T08:55:32.510Z,66.00
2017-09-22T08:58:00.023Z,65.80
2017-09-22T09:00:27.565Z,63.10
2017-09-22T09:02:55.126Z,61.90
2017-09-22T09:05:22.683Z,59.60
2017-09-22T09:07:50.961Z,57.60
2017-09-22T09:10:19.303Z,53.10
2017-09-22T09:12:46.805Z,53.00
2017-09-22T09:15:15.120Z,51.90
2017-09-22T09:17:42.620Z,51.90
2017-09-22T09:20:10.948Z,52.00
2017-09-22T09:22:38.517Z,51.90
2017-09-22T09:25:06.073Z,50.30
2017-09-22T09:27:33.639Z,46.50
2017-09-22T09:30:01.174Z,46.00
2017-09-22T09:32:28.710Z,44.60
2017-09-22T09:34:57.018Z,44.40
2017-09-22T09:37:24.542Z,44.40
2017-09-22T09:39:52.869Z,43.00
2017-09-22T09:42:20.390Z,42.90
2017-09-22T09:44:48.737Z,44.10
2017-09-22T09:47:16.274Z,44.10
2017-09-22T09:49:43.846Z,45.40
2017-09-22T09:52:11.347Z,45.70
2017-09-22T09:54:40.636Z,44.90
2017-09-22T09:57:08.929Z,42.90
2017-09-22T09:59:36.494Z,42.80
2017-09-22T10:02:04.045Z,40.80
2017-09-22T10:04:32.331Z,38.20
2017-09-22T10:06:59.862Z,38.10
2017-09-22T10:09:28.174Z,35.50
2017-09-22T10:11:55.691Z,35.40
2017-09-22T10:14:23.222Z,34.20
2017-09-22T10:16:50.758Z,32.40
2017-09-22T10:19:18.303Z,33.40
2017-09-22T10:21:46.617Z,34.60
2017-09-22T10:24:14.324Z,34.50
2017-09-22T10:26:42.626Z,34.10
2017-09-22T10:29:10.171Z,34.00
2017-09-22T10:31:38.486Z,33.80
2017-09-22T10:34:06.029Z,33.80
2017-09-22T10:36:33.559Z,33.40
2017-09-22T10:39:01.875Z,35.00
2017-09-22T10:41:29.406Z,34.90
2017-09-22T10:43:57.683Z,32.60
2017-09-22T10:46:25.966Z,30.40
2017-09-22T10:48:53.490Z,30.30
2017-09-22T10:51:21.046Z,31.40
2017-09-22T10:53:49.319Z,32.10
2017-09-22T10:56:16.854Z,32.10
2017-09-22T10:58:44.418Z,31.70
2017-09-22T11:01:11.933Z,35.90
2017-09-22T11:03:40.090Z,37.60
2017-09-22T11:06:07.641Z,37.20
2017-09-22T11:08:35.168Z,38.80
2017-09-22T11:11:02.726Z,41.40
2017-09-22T11:13:30.279Z,41.40
2017-09-22T11:15:57.828Z,42.60
2017-09-22T11:18:25.410Z,43.90
2017-09-22T11:20:52.944Z,43.30
2017-09-22T11:23:20.498Z,42.20
2017-09-22T11:25:48.038Z,41.20
2017-09-22T11:28:16.317Z,40.60
2017-09-22T11:30:44.632Z,38.80
2017-09-22T11:33:12.130Z,38.70
2017-09-22T11:35:40.089Z,37.50
2017-09-22T11:38:07.619Z,36.10
2017-09-22T11:40:35.171Z,34.80
2017-09-22T11:43:02.681Z,37.30
2017-09-22T11:45:30.238Z,38.50
2017-09-22T11:47:58.514Z,37.20
2017-09-22T11:50:26.051Z,37.30
2017-09-22T11:52:53.578Z,37.70
2017-09-22T11:55:21.138Z,39.10
2017-09-22T11:57:48.691Z,38.40
2017-09-22T12:00:16.971Z,39.30
2017-09-22T12:02:45.284Z,39.30
2017-09-22T12:05:12.793Z,39.30
2017-09-22T12:07:41.130Z,39.10
2017-09-22T12:10:08.634Z,39.10
2017-09-22T12:12:36.927Z,40.00
2017-09-22T12:15:04.436Z,40.00
2017-09-22T12:17:31.989Z,39.00
2017-09-22T12:19:59.512Z,38.00
2017-09-22T12:22:27.043Z,39.90
2017-09-22T12:24:55.323Z,39.50
2017-09-22T12:27:23.642Z,39.00
2017-09-22T12:29:51.186Z,38.90
2017-09-22T12:32:18.732Z,39.50
2017-09-22T12:34:47.002Z,40.10
2017-09-22T12:37:15.310Z,39.40
2017-09-22T12:39:42.871Z,39.30
2017-09-22T12:42:10.422Z,38.90
2017-09-22T12:44:37.991Z,39.60
2017-09-22T12:47:05.502Z,38.40
2017-09-22T12:49:33.012Z,38.80
2017-09-22T12:52:00.585Z,36.30
2017-09-22T12:54:28.887Z,38.50
2017-09-22T12:56:56.415Z,38.50
2017-09-22T12:59:23.942Z,38.50
2017-09-22T13:01:52.329Z,39.80
2017-09-22T13:04:20.651Z,40.70
2017-09-22T13:06:48.290Z,40.70
2017-09-22T13:09:15.808Z,40.20
2017-09-22T13:11:43.354Z,39.20
2017-09-22T13:14:10.863Z,38.60
2017-09-22T13:16:38.422Z,37.10
2017-09-22T13:19:05.932Z,37.10
2017-09-22T13:21:33.505Z,37.10
2017-09-22T13:24:01.823Z,38.00
2017-09-22T13:26:29.345Z,37.30
2017-09-22T13:28:57.654Z,38.10
2017-09-22T13:31:25.193Z,38.00
2017-09-22T13:33:52.705Z,38.90
2017-09-22T13:36:20.238Z,38.50
2017-09-22T13:38:47.766Z,40.20
2017-09-22T13:41:16.090Z,39.40
2017-09-22T13:43:43.610Z,39.30
2017-09-22T13:46:11.937Z,40.70
2017-09-22T13:48:40.217Z,40.70
2017-09-22T13:51:07.787Z,40.20
2017-09-22T13:53:35.350Z,41.20
2017-09-22T13:56:02.910Z,41.00
2017-09-22T13:58:30.450Z,41.60
2017-09-22T14:00:57.987Z,42.90
2017-09-22T14:03:25.526Z,43.60
2017-09-22T14:05:53.090Z,42.00
2017-09-22T14:08:20.670Z,42.20
2017-09-22T14:10:48.219Z,44.30
2017-09-22T14:13:15.748Z,43.50
2017-09-22T14:15:44.033Z,44.10
2017-09-22T14:18:12.329Z,43.50
2017-09-22T14:20:40.274Z,43.50
2017-09-22T14:23:09.299Z,44.40
2017-09-22T14:25:36.797Z,44.30
2017-09-22T14:28:04.357Z,45.40
2017-09-22T14:30:31.995Z,46.00
2017-09-22T14:32:59.522Z,46.10
2017-09-22T14:35:27.791Z,47.60
2017-09-22T14:37:56.113Z,47.50
2017-09-22T14:40:23.633Z,47.40
2017-09-22T14:42:51.963Z,46.20
2017-09-22T14:45:19.491Z,46.10
2017-09-22T14:47:47.030Z,46.30
2017-09-22T14:50:15.305Z,44.90
2017-09-22T14:52:43.639Z,45.20
2017-09-22T14:55:11.148Z,45.20
2017-09-22T14:57:40.407Z,46.30
2017-09-22T15:00:07.918Z,46.20
2017-09-22T15:02:36.202Z,45.70
2017-09-22T15:05:03.693Z,45.70
2017-09-22T15:07:31.247Z,46.30
2017-09-22T15:09:59.594Z,48.20
2017-09-22T15:12:27.149Z,47.80
2017-09-22T15:14:54.681Z,47.90
2017-09-22T15:17:22.271Z,48.60
2017-09-22T15:19:49.834Z,49.20
2017-09-22T15:22:17.400Z,48.70
2017-09-22T15:24:44.962Z,49.30
2017-09-22T15:27:12.515Z,48.60
2017-09-22T15:29:40.302Z,48.90
2017-09-22T15:32:07.826Z,49.00
2017-09-22T15:34:35.391Z,48.80
2017-09-22T15:37:02.957Z,48.50
2017-09-22T15:39:30.532Z,48.70
2017-09-22T15:41:58.033Z,49.70
2017-09-22T15:44:25.602Z,49.80
2017-09-22T15:46:53.123Z,49.50
2017-09-22T15:49:20.649Z,50.40
2017-09-22T15:51:48.950Z,50.40
2017-09-22T15:54:18.134Z,50.40
2017-09-22T15:56:45.657Z,50.40
2017-09-22T15:59:13.171Z,50.90
2017-09-22T16:01:40.738Z,51.00
2017-09-22T16:04:09.074Z,50.50
2017-09-22T16:06:36.634Z,49.80
2017-09-22T16:09:04.954Z,50.30
2017-09-22T16:11:32.503Z,50.30
2017-09-22T16:14:00.067Z,50.80
2017-09-22T16:16:27.716Z,51.50
2017-09-22T16:18:55.271Z,50.10
2017-09-22T16:21:23.384Z,49.80
2017-09-22T16:23:50.977Z,49.00
2017-09-22T16:26:19.254Z,50.40
2017-09-22T16:28:47.551Z,49.60
2017-09-22T16:31:15.117Z,49.50
2017-09-22T16:33:42.637Z,51.00
2017-09-22T16:36:10.172Z,51.20
2017-09-22T16:38:37.739Z,49.70
2017-09-22T16:41:05.282Z,50.60
2017-09-22T16:43:32.850Z,51.70
2017-09-22T16:46:00.370Z,51.80
2017-09-22T16:48:27.942Z,53.50
2017-09-22T16:50:55.455Z,54.90
2017-09-22T16:53:23.010Z,53.70
2017-09-22T16:55:50.562Z,53.00
2017-09-22T16:58:18.111Z,53.10
2017-09-22T17:00:45.646Z,52.40
2017-09-22T17:03:13.188Z,55.60
2017-09-22T17:05:40.695Z,55.80
2017-09-22T17:08:08.266Z,56.50
2017-09-22T17:10:35.786Z,55.50
2017-09-22T17:13:03.343Z,56.00
2017-09-22T17:15:30.878Z,55.10
2017-09-22T17:17:59.219Z,55.00
2017-09-22T17:20:27.574Z,54.90
2017-09-22T17:22:55.126Z,54.90
2017-09-22T17:25:22.687Z,55.10
2017-09-22T17:27:50.241Z,56.10
2017-09-22T17:30:17.805Z,57.30
2017-09-22T17:32:45.331Z,56.70
2017-09-22T17:35:12.884Z,56.60
2017-09-22T17:37:41.215Z,56.60
2017-09-22T17:40:08.738Z,56.60
2017-09-22T17:42:37.016Z,57.10
2017-09-22T17:45:11.193Z,57.30
2017-09-22T17:47:38.738Z,57.20
2017-09-22T17:50:06.740Z,57.60
2017-09-22T17:52:35.039Z,58.10
2017-09-22T17:55:02.603Z,58.10
2017-09-22T17:57:30.099Z,59.60
2017-09-22T17:59:57.629Z,58.60
2017-09-22T18:02:25.196Z,58.30
2017-09-22T18:04:52.745Z,58.30
2017-09-22T18:07:20.300Z,60.30
2017-09-22T18:09:47.869Z,61.00
2017-09-22T18:12:15.402Z,61.60
2017-09-22T18:14:43.715Z,63.50
2017-09-22T18:17:11.213Z,63.40
2017-09-22T18:19:38.764Z,64.10
2017-09-22T18:22:06.298Z,66.50
2017-09-22T18:24:33.833Z,69.00
2017-09-22T18:27:01.372Z,71.80
2017-09-22T18:29:29.702Z,76.10
2017-09-22T18:31:57.237Z,76.10
2017-09-22T18:34:24.789Z,78.40
2017-09-22T18:36:53.071Z,82.70
2017-09-22T18:39:20.657Z,82.60
2017-09-22T18:41:48.147Z,83.50
2017-09-22T18:44:15.718Z,85.30
2017-09-22T18:46:43.239Z,86.60
2017-09-22T18:49:10.798Z,86.90
2017-09-22T18:51:38.362Z,88.60
2017-09-22T18:54:06.031Z,91.20
2017-09-22T18:56:33.558Z,88.80
2017-09-22T18:59:01.138Z,89.20
2017-09-22T19:01:28.649Z,89.50
2017-09-22T19:03:56.946Z,89.40
2017-09-22T19:06:24.486Z,89.20
2017-09-22T19:08:52.775Z,90.10
2017-09-22T19:11:20.302Z,90.10
2017-09-22T19:13:47.824Z,90.20
2017-09-22T19:16:15.358Z,90.40
2017-09-22T19:18:43.641Z,91.80
2017-09-22T19:21:11.220Z,91.80
2017-09-22T19:23:38.751Z,90.40
2017-09-22T19:26:07.054Z,89.80
2017-09-22T19:28:34.562Z,89.80
2017-09-22T19:31:02.113Z,89.80
2017-09-22T19:33:29.618Z,90.10
2017-09-22T19:35:57.190Z,90.90
2017-09-22T19:38:24.689Z,90.70
2017-09-22T19:40:52.243Z,90.80
2017-09-22T19:43:19.759Z,91.20
2017-09-22T19:45:47.316Z,90.80
2017-09-22T19:48:14.846Z,91.00
2017-09-22T19:50:42.374Z,90.90
2017-09-22T19:53:09.910Z,90.90
2017-09-22T19:55:37.453Z,91.00
2017-09-22T19:58:04.952Z,92.30
2017-09-22T20:00:32.499Z,92.10
2017-09-22T20:03:00.042Z,92.00
2017-09-22T20:05:27.618Z,90.70
2017-09-22T20:07:55.132Z,91.60
2017-09-22T20:10:23.451Z,91.00
2017-09-22T20:12:50.966Z,91.00
2017-09-22T20:15:19.384Z,91.60
2017-09-22T20:17:46.882Z,91.60
2017-09-22T20:20:14.402Z,90.60
2017-09-22T20:22:41.995Z,91.40
2017-09-22T20:25:11.034Z,91.20
2017-09-22T20:27:39.353Z,91.30
2017-09-22T20:30:06.872Z,91.30
2017-09-22T20:32:35.195Z,92.20
2017-09-22T20:35:02.713Z,92.20
2017-09-22T20:37:31.062Z,90.20
2017-09-22T20:39:58.592Z,90.20
2017-09-22T20:42:26.162Z,90.60
2017-09-22T20:44:53.675Z,91.10
2017-09-22T20:47:21.197Z,91.20
2017-09-22T20:49:48.742Z,91.50
2017-09-22T20:52:16.374Z,91.00
2017-09-22T20:54:43.903Z,90.80
2017-09-22T20:57:12.231Z,91.10
2017-09-22T20:59:41.791Z,91.10
2017-09-22T21:02:10.217Z,90.60
2017-09-22T21:04:37.731Z,90.60
2017-09-22T21:07:06.038Z,90.90
2017-09-22T21:09:33.571Z,90.80
2017-09-22T21:12:01.131Z,91.00
2017-09-22T21:14:28.659Z,90.80
2017-09-22T21:16:56.185Z,90.90
2017-09-22T21:19:24.013Z,90.80
2017-09-22T21:21:51.746Z,91.50
2017-09-22T21:24:19.262Z,91.00
2017-09-22T21:26:49.008Z,91.10
2017-09-22T21:29:16.933Z,92.00
2017-09-22T21:31:44.599Z,91.70
2017-09-22T21:34:12.143Z,92.20
2017-09-22T21:36:40.628Z,91.60
2017-09-22T21:39:08.195Z,92.20
2017-09-22T21:41:35.749Z,92.60
2017-09-22T21:44:03.252Z,92.20
2017-09-22T21:46:30.834Z,92.30
2017-09-22T21:48:58.410Z,92.90
2017-09-22T21:51:26.723Z,93.20
2017-09-22T21:53:54.268Z,93.10
2017-09-22T21:56:21.840Z,93.70
2017-09-22T21:58:49.375Z,94.00
2017-09-22T22:01:17.677Z,94.10
2017-09-22T22:03:51.004Z,94.10
2017-09-22T22:06:24.138Z,93.80
2017-09-22T22:08:58.246Z,94.90
2017-09-22T22:11:26.560Z,95.20
2017-09-22T22:13:54.089Z,95.20
2017-09-22T22:16:22.415Z,94.80
2017-09-22T22:18:49.935Z,94.80
2017-09-22T22:21:18.249Z,94.70
2017-09-22T22:23:45.803Z,94.70
2017-09-22T22:26:13.338Z,94.20
2017-09-22T22:28:41.641Z,94.80
2017-09-22T22:31:09.146Z,94.80
2017-09-22T22:33:37.450Z,94.40
2017-09-22T22:36:04.971Z,94.40
2017-09-22T22:38:32.515Z,94.20
2017-09-22T22:41:00.031Z,94.50
2017-09-22T22:43:27.588Z,95.30
2017-09-22T22:45:55.151Z,94.90
2017-09-22T22:48:22.681Z,94.90
2017-09-22T22:50:50.993Z,95.10
2017-09-22T22:53:18.530Z,95.10
2017-09-22T22:55:46.802Z,94.80
2017-09-22T22:58:15.114Z,94.60
2017-09-22T23:00:43.569Z,94.60
2017-09-22T23:03:11.880Z,94.70
2017-09-22T23:05:39.430Z,94.70
2017-09-22T23:08:06.971Z,95.20
2017-09-22T23:10:34.506Z,95.10
2017-09-22T23:13:02.044Z,94.80
2017-09-22T23:15:29.554Z,95.00
2017-09-22T23:17:57.120Z,94.60
2017-09-22T23:20:24.642Z,95.10
2017-09-22T23:22:52.201Z,94.80
2017-09-22T23:25:19.729Z,95.70
2017-09-22T23:27:47.259Z,95.20
2017-09-22T23:30:14.757Z,95.20
2017-09-22T23:32:42.319Z,95.20
2017-09-22T23:35:09.839Z,95.20
2017-09-22T23:37:37.382Z,94.90
2017-09-22T23:40:05.655Z,95.30
2017-09-22T23:42:33.967Z,94.60
2017-09-22T23:45:01.515Z,94.60
2017-09-22T23:47:29.053Z,94.60
2017-09-22T23:49:57.333Z,94.40
2017-09-22T23:52:25.610Z,94.60
2017-09-22T23:54:53.948Z,95.00
2017-09-22T23:57:21.475Z,95.00
2017-09-22T23:59:49.008Z,94.90
